Almirante Brown, Argentina
Current Conditions -  °F | °C
As of 8:00 PM on Tuesday 27 Jan 2015 (Local Time) from SANT Reporting Station
Scattered Clouds Scattered Clouds  
Wind Chill: 86°   Ceiling: Unl
Heat Index: 93°   Visibility: 6mi
Dew Point: 73°   Wind: 5mph
Humidity: 66%   Direction: 140°SE
Pressure: 29.68"   Gusts: NA
Location:  26.86°S, 62.69°W
Report Text: SANT 272300Z 14004KT 9999 FEW040 SCT20030/23 Q1005
Loading
Personal Weather Stations






























Interactive Weather Map New forecast layout! Learn more

10-Day Weather Forecast

Advertisements
Track Severe Weather on mobile